Time;durP1;ratioP1;P1;durP2;ratioP2;P2;SDS_P1;SDS_P2;PMS_P1;PMS_P2;Temp;Humidity;BMP_temperature;BMP_pressure;BME280_temperature;BME280_humidity;BME280_pressure;Samples;Min_cycle;Max_cycle;Signal;HPM_P1;HPM_P2
2022/04/24 00:01:32;;;;;;;;;21.67;19.00;;;;;17.07;57.83;99081.00;4894839;29;45472;-87
2022/04/24 00:03:57;;;;;;;;;17.00;16.00;;;;;17.03;57.84;99073.97;4877396;29;45237;-84
2022/04/24 00:06:23;;;;;;;;;14.00;13.33;;;;;16.95;57.28;99072.47;4894530;29;45413;-84
2022/04/24 00:08:49;;;;;;;;;16.67;15.00;;;;;17.03;57.16;99077.56;4894629;29;44851;-85
2022/04/24 00:11:16;;;;;;;;;19.00;17.67;;;;;17.08;58.55;99082.75;4893048;29;48005;-84
2022/04/24 00:13:42;;;;;;;;;15.00;15.00;;;;;16.91;58.33;99081.59;4893504;29;45443;-84
2022/04/24 00:16:09;;;;;;;;;18.33;18.00;;;;;16.97;58.32;99070.59;4892740;29;45420;-84
2022/04/24 00:18:38;;;;;;;;;17.67;17.67;;;;;16.96;58.44;99073.34;4877069;29;44854;-85
2022/04/24 00:21:04;;;;;;;;;18.67;16.00;;;;;16.92;57.94;99074.41;4875201;29;46816;-84
2022/04/24 00:26:52;;;;;;;;;17.67;17.00;;;;;16.84;59.16;99063.94;4893638;29;45562;-84
2022/04/24 00:29:18;;;;;;;;;17.33;17.33;;;;;16.77;59.56;99068.66;4894289;29;45545;-84
2022/04/24 00:31:43;;;;;;;;;16.67;16.00;;;;;16.75;58.48;99072.34;4893638;29;47938;-85
2022/04/24 00:34:09;;;;;;;;;19.33;19.33;;;;;16.61;60.48;99062.13;4876485;29;44849;-84
2022/04/24 00:36:34;;;;;;;;;22.33;22.33;;;;;16.57;60.08;99068.53;4893144;29;45483;-84
2022/04/24 00:39:00;;;;;;;;;20.67;20.67;;;;;16.47;61.82;99064.44;4894967;29;45378;-85
2022/04/24 00:41:25;;;;;;;;;24.33;22.00;;;;;16.46;61.53;99071.63;4893557;29;46909;-84
2022/04/24 00:43:52;;;;;;;;;21.33;19.33;;;;;16.49;60.54;99073.31;4911627;29;44776;-85
2022/04/24 00:46:32;;;;;;;;;25.00;23.00;;;;;16.56;60.27;99075.72;4893877;29;45292;-85
2022/04/24 00:48:59;;;;;;;;;24.00;24.00;;;;;16.49;60.31;99068.81;4907750;29;45747;-84
2022/04/24 00:51:26;;;;;;;;;27.33;24.67;;;;;16.40;60.19;99079.88;4907050;29;45815;-84
2022/04/24 00:53:53;;;;;;;;;23.67;21.00;;;;;16.37;61.04;99075.50;4891499;29;44988;-85
2022/04/24 00:56:18;;;;;;;;;20.67;20.67;;;;;16.29;61.28;99077.59;4909813;29;45368;-84
2022/04/24 00:58:44;;;;;;;;;20.33;18.00;;;;;16.31;60.62;99088.28;4909308;29;45410;-84
2022/04/24 01:01:10;;;;;;;;;18.67;17.00;;;;;16.19;60.50;99082.41;4911493;29;45608;-85
2022/04/24 01:03:35;;;;;;;;;17.33;15.67;;;;;16.16;62.04;99082.53;4910976;29;45494;-85
2022/04/24 01:06:01;;;;;;;;;18.67;18.67;;;;;16.03;62.19;99078.50;4894413;29;45457;-84
2022/04/24 01:09:21;;;;;;;;;17.00;15.67;;;;;16.20;60.76;99097.56;4893878;29;45446;-83
2022/04/24 01:11:52;;;;;;;;;21.33;19.00;;;;;16.14;61.07;99095.13;4837048;29;47367;-85
2022/04/24 01:14:19;;;;;;;;;18.00;18.00;;;;;16.08;61.77;99095.31;4853156;29;45497;-85
2022/04/24 01:16:46;;;;;;;;;17.00;16.00;;;;;16.05;61.27;99103.47;4855199;29;45453;-84
2022/04/24 01:19:13;;;;;;;;;16.33;16.33;;;;;15.97;63.09;99094.81;4856385;29;45402;-84
2022/04/24 01:21:42;;;;;;;;;16.00;16.00;;;;;16.02;61.39;99100.91;4869863;29;45425;-84
2022/04/24 01:24:08;;;;;;;;;15.67;15.33;;;;;15.90;61.73;99098.66;4870035;29;45479;-84
2022/04/24 01:26:34;;;;;;;;;19.00;19.00;;;;;15.86;61.96;99100.53;4855313;29;44914;-84
2022/04/24 01:29:01;;;;;;;;;16.67;16.67;;;;;15.79;62.72;99105.25;4855041;29;45548;-84
2022/04/24 01:31:27;;;;;;;;;13.67;13.67;;;;;15.74;61.98;99095.59;4870894;29;45240;-83
2022/04/24 01:33:54;;;;;;;;;19.33;18.00;;;;;15.85;61.78;99108.63;4871735;29;45527;-84
2022/04/24 01:36:19;;;;;;;;;13.67;13.33;;;;;15.74;61.07;99106.31;4871305;29;45465;-84
2022/04/24 01:38:51;;;;;;;;;18.67;17.33;;;;;15.69;61.65;99105.56;4855492;29;45674;-84
2022/04/24 01:41:17;;;;;;;;;19.00;15.33;;;;;15.73;61.65;99112.59;4854617;29;47728;-84
2022/04/24 01:43:42;;;;;;;;;16.67;16.67;;;;;15.72;62.13;99111.72;4856839;29;45894;-85
2022/04/24 01:46:09;;;;;;;;;16.33;15.33;;;;;15.77;62.14;99108.88;4890082;29;45447;-85
2022/04/24 01:48:35;;;;;;;;;19.67;17.00;;;;;15.67;61.43;99102.03;4894123;29;45488;-85
2022/04/24 01:51:04;;;;;;;;;19.00;16.67;;;;;15.70;61.24;99113.56;4893926;29;47081;-84
2022/04/24 01:53:30;;;;;;;;;18.67;17.67;;;;;15.70;61.08;99118.91;4908635;29;45612;-84
2022/04/24 01:56:00;;;;;;;;;17.00;14.67;;;;;15.66;61.81;99111.91;4892678;29;45503;-85
2022/04/24 01:58:26;;;;;;;;;16.33;14.00;;;;;15.72;60.71;99111.72;4909551;28;44990;-84
2022/04/24 02:00:53;;;;;;;;;22.00;17.67;;;;;15.73;60.75;99116.16;4909762;29;47598;-84
2022/04/24 02:03:20;;;;;;;;;17.33;15.33;;;;;15.74;60.97;99123.28;4907650;29;45820;-85
2022/04/24 02:05:46;;;;;;;;;19.67;19.67;;;;;15.63;60.31;99105.75;4891424;29;45454;-85
2022/04/24 02:08:12;;;;;;;;;10.67;7.67;;;;;15.70;60.55;99126.94;4908799;29;45744;-84
2022/04/24 02:10:38;;;;;;;;;15.00;15.00;;;;;15.69;60.52;99124.31;4909430;29;46129;-85
2022/04/24 02:13:03;;;;;;;;;16.00;15.00;;;;;15.64;60.35;99121.78;4892106;29;44726;-85
2022/04/24 02:15:29;;;;;;;;;17.33;14.67;;;;;15.70;60.14;99136.81;4909855;29;45350;-85
2022/04/24 02:17:55;;;;;;;;;15.00;15.00;;;;;15.71;60.33;99142.09;4892470;29;45400;-85
2022/04/24 02:20:23;;;;;;;;;15.33;15.00;;;;;15.72;59.88;99141.22;4911334;29;45420;-85
2022/04/24 02:22:49;;;;;;;;;17.00;17.00;;;;;15.65;59.98;99139.59;4896794;29;45490;-84
2022/04/24 02:25:15;;;;;;;;;15.67;14.00;;;;;15.66;60.23;99135.16;4895160;29;45388;-84
2022/04/24 02:27:41;;;;;;;;;19.00;16.33;;;;;15.66;60.29;99129.78;4912940;29;44867;-84
2022/04/24 02:30:08;;;;;;;;;17.00;16.00;;;;;15.71;61.50;99133.19;4914054;29;45812;-84
2022/04/24 02:32:33;;;;;;;;;18.33;18.33;;;;;15.61;61.66;99124.56;4913162;29;44815;-84
2022/04/24 02:34:59;;;;;;;;;21.67;20.67;;;;;15.68;62.35;99152.06;4913402;29;45360;-85
2022/04/24 02:37:25;;;;;;;;;20.33;19.00;;;;;15.62;62.60;99139.72;4897375;29;45421;-85
2022/04/24 02:39:52;;;;;;;;;22.00;20.00;;;;;15.64;62.85;99151.28;4895946;29;47153;-83
2022/04/24 02:42:17;;;;;;;;;17.33;17.33;;;;;15.56;63.27;99146.16;4912495;29;45938;-84
2022/04/24 02:44:43;;;;;;;;;22.33;22.00;;;;;15.53;63.30;99145.38;4914222;29;46042;-85
2022/04/24 02:47:08;;;;;;;;;20.00;18.67;;;;;15.48;63.32;99140.16;4915243;29;45439;-84
2022/04/24 02:49:34;;;;;;;;;17.00;17.00;;;;;15.53;63.87;99151.63;4915055;29;45564;-84
2022/04/24 02:51:59;;;;;;;;;18.33;18.33;;;;;15.45;64.11;99145.63;4914110;29;45543;-85
2022/04/24 02:54:24;;;;;;;;;22.67;21.00;;;;;15.48;64.29;99163.41;4897161;29;44870;-85
2022/04/24 02:56:51;;;;;;;;;18.00;16.67;;;;;15.55;64.43;99159.59;4895908;29;45496;-84
2022/04/24 02:59:19;;;;;;;;;16.00;16.00;;;;;15.46;64.74;99154.53;4897447;29;46900;-85
2022/04/24 03:01:45;;;;;;;;;26.33;21.67;;;;;15.37;64.75;99164.63;4896382;29;44910;-84
2022/04/24 03:04:11;;;;;;;;;18.00;17.33;;;;;15.33;65.00;99159.38;4895117;29;45403;-84
2022/04/24 03:06:37;;;;;;;;;17.33;17.33;;;;;15.35;64.94;99173.59;4893661;29;44845;-84
2022/04/24 03:09:05;;;;;;;;;25.00;21.33;;;;;15.40;65.20;99169.88;4892524;29;47069;-85
2022/04/24 03:11:30;;;;;;;;;26.33;22.00;;;;;15.28;65.47;99164.88;4892187;29;45478;-85
2022/04/24 03:13:56;;;;;;;;;21.67;19.67;;;;;15.25;65.68;99162.31;4875851;29;44750;-85
2022/04/24 03:16:21;;;;;;;;;21.67;21.33;;;;;15.26;65.58;99169.41;4875825;29;45500;-85
2022/04/24 03:18:47;;;;;;;;;21.33;18.33;;;;;15.17;65.81;99170.56;4874312;29;46994;-85
2022/04/24 03:21:13;;;;;;;;;23.67;22.00;;;;;15.10;66.08;99146.69;4875466;29;45429;-85
2022/04/24 03:23:38;;;;;;;;;25.67;22.00;;;;;15.18;66.14;99168.78;4892807;29;45337;-84
2022/04/24 03:26:04;;;;;;;;;25.67;21.33;;;;;15.11;66.22;99172.56;4894038;29;45271;-84
2022/04/24 03:28:29;;;;;;;;;20.67;19.33;;;;;15.06;66.53;99161.09;4894186;28;45858;-84
2022/04/24 03:31:02;;;;;;;;;18.67;18.67;;;;;15.21;66.17;99179.41;4892846;28;45794;-85
2022/04/24 03:33:28;;;;;;;;;18.00;16.67;;;;;15.04;66.42;99174.53;4895324;28;44819;-85
2022/04/24 03:35:53;;;;;;;;;21.67;21.00;;;;;15.02;66.77;99175.50;4894129;28;45385;-84
2022/04/24 03:38:18;;;;;;;;;22.33;19.33;;;;;14.94;66.67;99171.22;4877227;29;46718;-84
2022/04/24 03:40:44;;;;;;;;;20.67;18.67;;;;;14.83;67.25;99168.00;4883534;28;44810;-85
2022/04/24 03:43:09;;;;;;;;;22.33;22.33;;;;;14.88;67.44;99174.09;4874406;29;45458;-84
2022/04/24 03:45:34;;;;;;;;;22.00;20.33;;;;;14.87;67.47;99182.19;4872712;29;45882;-84
2022/04/24 03:48:00;;;;;;;;;22.00;22.00;;;;;14.84;67.67;99179.59;4872467;29;45323;-85
2022/04/24 03:50:25;;;;;;;;;22.33;21.67;;;;;14.80;67.55;99179.69;4873065;29;45866;-84
2022/04/24 03:52:51;;;;;;;;;22.00;20.33;;;;;14.81;67.52;99180.56;4855441;29;45369;-85
2022/04/24 03:55:16;;;;;;;;;22.33;22.00;;;;;14.71;67.74;99171.91;4872933;29;45444;-85
2022/04/24 03:57:42;;;;;;;;;19.33;19.33;;;;;14.78;67.63;99185.97;4873584;29;45610;-85
2022/04/24 04:01:03;;;;;;;;;25.00;22.00;;;;;14.92;67.26;99185.59;4873808;29;45461;-85
2022/04/24 04:03:28;;;;;;;;;19.33;19.33;;;;;14.72;67.71;99194.19;4873920;29;45322;-85
2022/04/24 04:05:54;;;;;;;;;26.33;22.00;;;;;14.70;67.70;99201.38;4872965;29;44833;-85
2022/04/24 04:08:19;;;;;;;;;21.33;20.33;;;;;14.61;67.84;99199.84;4873238;29;45680;-85
2022/04/24 04:10:44;;;;;;;;;27.33;23.67;;;;;14.59;68.07;99199.88;4871266;29;45095;-85
2022/04/24 04:13:10;;;;;;;;;21.33;20.00;;;;;14.55;68.01;99197.28;4872920;29;45429;-84
2022/04/24 04:15:36;;;;;;;;;24.00;22.33;;;;;14.57;68.21;99203.53;4857044;29;44841;-84
2022/04/24 04:18:01;;;;;;;;;19.00;17.67;;;;;14.45;68.35;99198.47;4855925;29;46872;-84
2022/04/24 04:20:27;;;;;;;;;24.67;23.67;;;;;14.44;68.25;99205.63;4855596;29;45978;-84
2022/04/24 04:22:52;;;;;;;;;22.67;22.00;;;;;14.42;68.36;99199.41;4874182;29;46382;-84
2022/04/24 04:25:23;;;;;;;;;21.00;21.00;;;;;14.55;67.85;99210.69;4856838;29;45422;-84
2022/04/24 04:27:49;;;;;;;;;25.33;23.00;;;;;14.41;67.92;99209.22;4871905;29;46726;-84
2022/04/24 04:30:15;;;;;;;;;20.33;19.67;;;;;14.36;67.92;99211.16;4855712;29;45456;-84
2022/04/24 04:32:40;;;;;;;;;20.33;19.33;;;;;14.30;68.35;99203.31;4873968;29;45371;-84
2022/04/24 04:35:09;;;;;;;;;23.67;23.00;;;;;14.32;68.40;99212.16;4872958;29;45414;-84
2022/04/24 04:37:39;;;;;;;;;28.33;21.67;;;;;14.30;68.27;99213.09;4857641;29;47059;-84
2022/04/24 04:40:06;;;;;;;;;29.00;27.33;;;;;14.28;68.39;99198.88;4859558;29;45377;-84
2022/04/24 04:42:31;;;;;;;;;23.33;22.00;;;;;14.33;68.39;99219.25;4891333;28;45471;-85
2022/04/24 04:44:59;;;;;;;;;20.67;20.00;;;;;14.36;68.04;99223.63;4900130;29;45704;-85
2022/04/24 04:47:24;;;;;;;;;24.67;24.00;;;;;14.33;68.23;99221.06;4911948;29;46010;-85
2022/04/24 04:49:50;;;;;;;;;23.67;21.33;;;;;14.31;68.00;99222.88;4910663;29;45545;-84
2022/04/24 04:52:16;;;;;;;;;20.00;20.00;;;;;14.28;67.50;99229.19;4911208;29;45441;-84
2022/04/24 04:54:42;;;;;;;;;22.67;20.00;;;;;14.10;67.82;99217.16;4894439;29;44880;-84
2022/04/24 04:57:07;;;;;;;;;20.67;18.33;;;;;14.04;67.82;99222.66;4911093;29;45232;-84
2022/04/24 04:59:33;;;;;;;;;23.33;23.33;;;;;14.10;68.06;99233.22;4910451;29;45424;-83
2022/04/24 05:01:59;;;;;;;;;18.00;15.00;;;;;14.09;68.02;99241.25;4909440;29;45455;-85
2022/04/24 05:04:24;;;;;;;;;20.33;20.33;;;;;14.01;68.09;99244.13;4908577;29;45815;-84
2022/04/24 05:06:50;;;;;;;;;19.33;19.00;;;;;14.03;67.71;99247.63;4891860;29;46647;-85
2022/04/24 05:09:16;;;;;;;;;21.33;19.33;;;;;14.08;68.24;99245.75;4894036;29;45398;-85
2022/04/24 05:11:42;;;;;;;;;20.33;20.00;;;;;14.07;67.62;99253.78;4894069;29;44897;-85
2022/04/24 05:14:07;;;;;;;;;20.67;20.33;;;;;14.11;67.28;99259.00;4893511;29;45869;-85
2022/04/24 05:16:34;;;;;;;;;18.00;18.00;;;;;14.23;67.47;99262.31;4910424;29;45912;-85
2022/04/24 05:18:59;;;;;;;;;19.67;19.67;;;;;14.13;67.78;99273.22;4911376;29;45441;-85
2022/04/24 05:21:25;;;;;;;;;18.67;18.67;;;;;14.09;67.62;99268.88;4913246;28;45566;-84
2022/04/24 05:23:52;;;;;;;;;19.00;19.00;;;;;14.16;67.24;99281.19;4913027;29;45451;-85
2022/04/24 05:26:18;;;;;;;;;21.67;20.00;;;;;14.14;67.13;99277.66;4895567;28;47321;-85
2022/04/24 05:28:44;;;;;;;;;25.00;20.00;;;;;14.14;66.89;99277.66;4913129;29;44758;-85
2022/04/24 05:32:00;;;;;;;;;20.67;19.33;;;;;14.31;66.96;99279.06;4911078;29;45487;-85
2022/04/24 05:34:26;;;;;;;;;19.00;16.33;;;;;14.13;67.21;99291.06;4893237;29;45613;-84
2022/04/24 05:36:51;;;;;;;;;20.33;19.33;;;;;14.15;66.57;99294.59;4911009;29;45258;-84
2022/04/24 05:39:16;;;;;;;;;19.67;19.67;;;;;14.13;67.67;99294.59;4893375;29;45423;-84
2022/04/24 05:41:42;;;;;;;;;27.00;25.33;;;;;14.13;66.63;99291.94;4910119;29;45378;-85
2022/04/24 05:44:07;;;;;;;;;17.33;17.33;;;;;14.16;66.85;99291.00;4893025;29;45510;-85
2022/04/24 05:46:33;;;;;;;;;20.00;20.00;;;;;14.27;66.44;99296.09;4909600;29;46242;-85
2022/04/24 05:49:00;;;;;;;;;24.33;20.33;;;;;14.32;66.01;99287.03;4909051;29;45535;-85
2022/04/24 05:51:27;;;;;;;;;21.67;18.33;;;;;14.41;66.05;99281.44;4908178;29;45476;-85
2022/04/24 05:53:53;;;;;;;;;24.00;21.67;;;;;14.52;65.01;99291.91;4894883;29;45433;-85
2022/04/24 05:56:18;;;;;;;;;19.33;17.67;;;;;14.51;65.13;99275.88;4898095;29;46343;-84
2022/04/24 05:58:44;;;;;;;;;19.00;18.00;;;;;14.55;65.16;99286.44;4897221;29;45396;-85
2022/04/24 06:01:09;;;;;;;;;19.67;17.33;;;;;14.54;65.14;99286.47;4896904;29;45558;-84
2022/04/24 06:03:40;;;;;;;;;20.33;20.33;;;;;14.66;65.31;99288.88;4912414;29;45245;-83
2022/04/24 06:06:07;;;;;;;;;26.67;23.33;;;;;14.75;64.75;99287.78;4897258;29;47038;-84
2022/04/24 06:08:32;;;;;;;;;22.00;19.00;;;;;14.73;64.22;99292.28;4897689;29;45345;-84
2022/04/24 06:10:58;;;;;;;;;20.67;20.33;;;;;14.85;63.91;99302.66;4897986;29;45458;-85
2022/04/24 06:13:27;;;;;;;;;20.00;17.00;;;;;14.90;64.24;99302.53;4899373;29;45462;-85
2022/04/24 06:15:55;;;;;;;;;27.67;24.67;;;;;14.94;63.69;99296.19;4899054;29;47091;-85
2022/04/24 06:18:21;;;;;;;;;19.33;19.33;;;;;15.04;63.54;99302.16;4915488;29;45579;-85
2022/04/24 06:20:46;;;;;;;;;22.00;21.00;;;;;15.09;63.28;99290.44;4912418;29;45276;-85
2022/04/24 06:23:12;;;;;;;;;27.00;20.67;;;;;15.17;63.16;99296.44;4913551;29;45471;-85
2022/04/24 06:25:38;;;;;;;;;22.33;20.67;;;;;15.28;62.65;99306.84;4897647;29;45499;-84
2022/04/24 06:28:04;;;;;;;;;22.33;22.33;;;;;15.38;62.15;99302.09;4913699;29;45424;-85
2022/04/24 06:30:31;;;;;;;;;22.67;21.00;;;;;15.44;62.08;99303.75;4896858;29;45414;-85
2022/04/24 06:33:01;;;;;;;;;23.33;22.33;;;;;15.60;62.13;99313.09;4896557;29;45391;-84
2022/04/24 06:35:27;;;;;;;;;23.33;22.00;;;;;15.49;61.86;99309.81;4896328;29;47313;-84
2022/04/24 06:37:54;;;;;;;;;24.33;21.00;;;;;15.68;61.78;99327.13;4896648;29;45427;-85
2022/04/24 06:40:20;;;;;;;;;27.67;22.00;;;;;15.60;61.44;99307.72;4913849;29;45327;-84
2022/04/24 06:42:54;;;;;;;;;26.33;22.00;;;;;15.77;61.40;99315.28;4913817;29;45431;-85
2022/04/24 06:45:27;;;;;;;;;24.67;23.33;;;;;15.86;61.26;99320.38;4913955;29;45367;-85
2022/04/24 06:48:06;;;;;;;;;28.00;22.33;;;;;16.09;60.76;99322.34;4896922;29;45456;-86
2022/04/24 06:50:33;;;;;;;;;25.33;24.67;;;;;16.11;60.58;99319.63;4914631;29;45201;-85
2022/04/24 06:53:01;;;;;;;;;31.00;25.00;;;;;16.32;60.35;99320.72;4913119;29;45541;-86
2022/04/24 06:55:30;;;;;;;;;22.67;21.67;;;;;16.58;59.97;99325.25;4911581;29;45418;-85
2022/04/24 06:57:56;;;;;;;;;25.67;24.33;;;;;16.68;59.17;99328.50;4913313;29;45458;-84
2022/04/24 07:00:23;;;;;;;;;24.67;22.67;;;;;16.84;58.42;99329.78;4896287;29;45410;-84
2022/04/24 07:02:49;;;;;;;;;27.00;24.00;;;;;16.86;58.19;99329.72;4895182;29;45470;-85
2022/04/24 07:05:15;;;;;;;;;24.33;23.67;;;;;16.87;58.12;99310.88;4911363;29;45306;-85
2022/04/24 07:07:41;;;;;;;;;32.00;25.00;;;;;16.92;57.56;99318.75;4894777;29;44910;-85
2022/04/24 07:10:08;;;;;;;;;28.67;22.67;;;;;17.09;57.24;99326.25;4895000;29;45438;-84
2022/04/24 07:12:44;;;;;;;;;26.33;25.00;;;;;17.27;57.52;99325.59;4912483;29;45307;-84
2022/04/24 07:15:10;;;;;;;;;31.67;25.00;;;;;17.30;57.25;99317.41;4912021;29;46088;-85
2022/04/24 07:17:35;;;;;;;;;21.33;21.00;;;;;17.52;56.81;99327.38;4910863;29;45455;-85
2022/04/24 07:20:00;;;;;;;;;27.33;25.33;;;;;17.62;56.40;99325.22;4912856;28;45948;-85
2022/04/24 07:22:26;;;;;;;;;33.33;28.00;;;;;17.79;56.00;99333.50;4912297;29;45441;-84
2022/04/24 07:24:51;;;;;;;;;30.33;26.67;;;;;17.83;55.65;99336.97;4896928;29;47249;-84
2022/04/24 07:27:16;;;;;;;;;30.67;28.33;;;;;17.89;55.47;99334.06;4895004;29;45338;-85
2022/04/24 07:29:42;;;;;;;;;27.00;26.00;;;;;17.99;55.09;99348.91;4895175;29;45326;-85
2022/04/24 07:32:08;;;;;;;;;27.67;26.67;;;;;18.06;55.08;99346.91;4894721;29;45521;-85
2022/04/24 07:34:33;;;;;;;;;25.67;25.67;;;;;18.17;54.54;99342.81;4911615;29;45507;-85
2022/04/24 07:36:59;;;;;;;;;31.00;29.00;;;;;18.33;54.11;99342.22;4910724;29;45443;-86
2022/04/24 07:39:31;;;;;;;;;32.33;29.00;;;;;18.43;53.84;99357.06;4892569;29;45463;-86
2022/04/24 07:41:56;;;;;;;;;31.67;31.67;;;;;18.42;52.76;99349.94;4909009;29;45384;-86
2022/04/24 07:44:24;;;;;;;;;31.00;25.67;;;;;18.41;53.19;99334.72;4909646;29;45734;-84
2022/04/24 07:46:49;;;;;;;;;37.33;33.00;;;;;18.43;53.34;99356.19;4909949;29;45418;-85
2022/04/24 07:49:15;;;;;;;;;36.00;31.67;;;;;18.47;52.22;99347.91;4909257;29;45536;-85
2022/04/24 07:51:41;;;;;;;;;18.00;16.00;;;;;18.59;52.78;99354.63;4892636;29;45543;-85
2022/04/24 07:54:07;;;;;;;;;31.33;27.33;;;;;18.54;52.71;99349.44;4909493;29;45184;-85
2022/04/24 07:56:32;;;;;;;;;36.00;30.33;;;;;18.64;52.69;99362.50;4909831;29;45245;-85
2022/04/24 07:58:58;;;;;;;;;36.67;33.67;;;;;18.69;52.40;99337.13;4910720;29;45401;-85
2022/04/24 08:01:23;;;;;;;;;32.00;28.00;;;;;18.81;52.70;99351.94;4893256;29;44794;-85
2022/04/24 08:03:48;;;;;;;;;35.00;33.00;;;;;18.86;51.82;99358.00;4893477;29;46938;-86
2022/04/24 08:06:15;;;;;;;;;37.67;33.00;;;;;18.79;51.87;99354.69;4909502;29;45327;-84
2022/04/24 08:08:41;;;;;;;;;34.33;31.00;;;;;18.64;51.52;99366.06;4907863;29;45363;-85
2022/04/24 08:11:06;;;;;;;;;33.67;31.33;;;;;18.49;50.49;99362.19;4892466;29;45432;-85
2022/04/24 08:13:32;;;;;;;;;31.00;31.00;;;;;18.48;51.77;99368.53;4910343;29;45063;-84
2022/04/24 08:15:59;;;;;;;;;40.00;36.00;;;;;18.65;52.01;99367.84;4909851;29;45604;-84
2022/04/24 08:18:25;;;;;;;;;36.33;32.67;;;;;18.84;51.25;99365.28;4911819;29;45615;-84
2022/04/24 08:20:51;;;;;;;;;44.00;37.33;;;;;18.91;50.86;99353.31;4894109;29;45495;-84
2022/04/24 08:23:16;;;;;;;;;40.00;34.00;;;;;18.89;50.65;99360.59;4910413;29;45498;-83
2022/04/24 08:25:43;;;;;;;;;39.00;34.67;;;;;18.98;50.66;99356.59;4893019;29;45502;-85
2022/04/24 08:28:10;;;;;;;;;13.33;7.00;;;;;19.21;50.13;99369.13;4909802;29;45413;-84
2022/04/24 08:30:41;;;;;;;;;36.67;32.00;;;;;19.13;49.88;99357.78;4911463;29;45486;-84
2022/04/24 08:33:07;;;;;;;;;41.00;35.00;;;;;19.05;50.10;99360.81;4895186;29;46812;-85
2022/04/24 08:35:33;;;;;;;;;34.00;31.67;;;;;19.13;49.29;99366.75;4909787;28;45298;-84
2022/04/24 08:37:59;;;;;;;;;35.67;33.67;;;;;19.07;48.45;99371.53;4894256;29;45403;-84
2022/04/24 08:40:25;;;;;;;;;43.00;36.33;;;;;18.99;48.25;99375.41;4913658;29;45733;-86
2022/04/24 08:46:14;;;;;;;;;34.33;28.67;;;;;19.22;49.26;99369.97;4912008;29;45369;-86
2022/04/24 08:48:45;;;;;;;;;37.00;32.33;;;;;19.30;49.10;99375.91;4894684;28;44789;-86
2022/04/24 08:51:11;;;;;;;;;37.33;33.00;;;;;19.11;49.59;99359.69;4894929;28;44873;-86
2022/04/24 08:53:38;;;;;;;;;43.00;35.33;;;;;19.27;49.04;99371.53;4895733;29;47288;-85
2022/04/24 08:56:04;;;;;;;;;40.67;34.33;;;;;19.17;48.41;99370.19;4894520;29;45480;-84
2022/04/24 08:58:31;;;;;;;;;45.00;34.67;;;;;19.11;47.18;99386.63;4910749;28;45112;-85
2022/04/24 09:00:56;;;;;;;;;50.00;35.33;;;;;19.01;48.50;99379.84;4903684;29;45394;-85
2022/04/24 09:03:22;;;;;;;;;36.67;34.33;;;;;18.99;47.28;99386.19;4894344;29;47568;-85
2022/04/24 09:05:47;;;;;;;;;41.00;35.33;;;;;19.04;48.69;99385.13;4911996;28;45379;-84
2022/04/24 09:08:13;;;;;;;;;47.00;38.00;;;;;19.13;48.39;99382.03;4895586;28;45496;-85
2022/04/24 09:10:52;;;;;;;;;40.00;35.00;;;;;19.37;48.61;99388.19;4899607;28;45566;-84
2022/04/24 09:14:14;;;;;;;;;39.33;34.00;;;;;19.53;48.30;99385.66;4915439;28;45408;-85
2022/04/24 09:16:17;;;;;;;;;42.00;35.67;;;;;19.65;48.05;99387.81;4914737;28;45659;-86
2022/04/24 09:18:43;;;;;;;;;33.00;31.00;;;;;19.78;47.05;99389.06;4898608;28;44830;-86
2022/04/24 09:21:13;;;;;;;;;34.33;32.33;;;;;19.95;46.55;99376.63;4882842;29;45981;-84
2022/04/24 09:23:39;;;;;;;;;36.00;31.00;;;;;19.93;45.05;99394.69;4893832;28;45374;-84
2022/04/24 09:26:05;;;;;;;;;42.00;34.00;;;;;19.81;46.49;99397.97;4893115;29;45921;-84
2022/04/24 09:28:38;;;;;;;;;37.67;34.33;;;;;19.89;45.56;99398.47;4893196;29;45434;-85
2022/04/24 09:31:10;;;;;;;;;35.67;32.67;;;;;19.91;46.11;99404.69;4899105;29;45534;-85
2022/04/24 09:33:43;;;;;;;;;31.00;27.33;;;;;19.83;44.58;99405.03;4917632;29;45288;-84
2022/04/24 09:36:10;;;;;;;;;36.00;33.33;;;;;19.84;46.12;99414.03;4917793;29;45426;-84
2022/04/24 09:38:43;;;;;;;;;34.33;29.33;;;;;19.93;45.86;99386.59;4917966;29;45423;-84
2022/04/24 09:41:23;;;;;;;;;37.67;34.00;;;;;19.94;45.48;99400.03;4916548;29;45482;-85
2022/04/24 09:43:50;;;;;;;;;44.67;37.00;;;;;19.95;45.30;99417.09;4916673;29;46904;-85
2022/04/24 09:46:27;;;;;;;;;43.33;34.00;;;;;20.13;45.46;99396.47;4901027;29;45727;-85
2022/04/24 09:48:53;;;;;;;;;35.67;32.00;;;;;20.04;44.28;99397.78;4917300;29;45382;-85
2022/04/24 09:51:20;;;;;;;;;39.33;34.33;;;;;20.17;45.55;99406.19;4899363;29;44897;-85
2022/04/24 09:53:47;;;;;;;;;42.67;34.33;;;;;20.22;45.13;99398.75;4884036;29;45618;-85
2022/04/24 09:56:14;;;;;;;;;36.00;32.33;;;;;20.25;44.71;99403.13;4898083;29;45453;-85
2022/04/24 09:58:41;;;;;;;;;45.67;35.67;;;;;20.32;45.28;99412.66;4915247;29;45439;-86
2022/04/24 10:01:09;;;;;;;;;33.33;32.00;;;;;20.36;44.75;99407.06;4897825;29;45376;-85
2022/04/24 10:03:38;;;;;;;;;34.00;32.33;;;;;20.31;45.07;99410.94;4912471;29;47610;-84
2022/04/24 10:06:05;;;;;;;;;30.33;30.33;;;;;20.39;45.48;99416.84;4914943;29;45358;-85
2022/04/24 10:08:35;;;;;;;;;29.67;27.33;;;;;20.46;44.92;99418.31;4914901;29;45346;-87
2022/04/24 10:11:05;;;;;;;;;41.33;36.00;;;;;20.45;44.61;99411.16;4902448;29;45462;-84
2022/04/24 10:13:35;;;;;;;;;43.00;35.67;;;;;20.35;44.63;99426.03;4919186;28;45054;-85
2022/04/24 10:16:28;;;;;;;;;37.33;31.67;;;;;20.31;44.99;99429.84;4886833;29;45447;-85
2022/04/24 10:19:09;;;;;;;;;37.00;32.33;;;;;20.30;44.74;99433.47;4918296;29;44971;-85
2022/04/24 10:21:50;;;;;;;;;33.00;30.00;;;;;20.21;44.05;99428.50;4901488;29;45701;-85
2022/04/24 10:24:15;;;;;;;;;34.00;28.67;;;;;20.03;44.63;99443.72;4917779;29;45571;-85
2022/04/24 10:26:51;;;;;;;;;30.00;28.00;;;;;20.13;43.76;99439.66;4901090;29;45447;-84
2022/04/24 10:29:17;;;;;;;;;39.00;34.33;;;;;19.95;44.23;99434.16;4901045;28;45484;-85
2022/04/24 10:31:45;;;;;;;;;27.67;22.00;;;;;20.03;43.86;99452.69;4900670;28;45393;-84
2022/04/24 10:34:13;;;;;;;;;23.33;23.33;;;;;19.96;43.69;99451.25;4902307;29;45455;-84
2022/04/24 10:36:59;;;;;;;;;24.00;23.00;;;;;19.97;43.82;99447.56;4902135;28;45468;-84
2022/04/24 10:39:27;;;;;;;;;28.67;26.33;;;;;19.84;44.61;99436.47;4919271;28;45519;-84
2022/04/24 10:41:59;;;;;;;;;34.33;32.33;;;;;19.98;44.67;99457.44;4898502;28;45376;-85
2022/04/24 10:44:27;;;;;;;;;30.67;28.33;;;;;19.92;44.72;99449.63;4896981;28;47274;-86
2022/04/24 10:46:57;;;;;;;;;34.33;33.33;;;;;20.02;45.02;99461.75;4880936;28;45857;-85
2022/04/24 10:49:25;;;;;;;;;34.67;32.00;;;;;20.13;44.48;99464.81;4881292;28;44861;-85
2022/04/24 10:51:59;;;;;;;;;31.00;30.00;;;;;20.19;43.97;99464.53;4880065;28;45434;-84
2022/04/24 10:54:32;;;;;;;;;28.33;27.00;;;;;20.30;44.13;99473.97;4880179;28;46728;-84
2022/04/24 10:56:59;;;;;;;;;33.33;28.00;;;;;20.19;43.13;99459.13;4896065;28;45509;-84
2022/04/24 10:59:24;;;;;;;;;30.00;29.33;;;;;20.35;44.29;99470.09;4897470;28;45390;-85
2022/04/24 11:01:55;;;;;;;;;31.67;31.33;;;;;20.53;42.91;99467.50;4898644;28;44911;-85
2022/04/24 11:04:22;;;;;;;;;28.67;24.67;;;;;20.49;43.52;99466.78;4899449;28;46680;-85
2022/04/24 11:06:58;;;;;;;;;31.67;30.00;;;;;20.60;43.62;99462.72;4867320;29;45660;-85
2022/04/24 11:09:29;;;;;;;;;27.00;25.67;;;;;20.63;42.41;99478.78;4881184;28;45757;-86
2022/04/24 11:12:07;;;;;;;;;32.33;28.00;;;;;20.85;42.77;99484.91;4882920;29;44793;-84
2022/04/24 11:14:34;;;;;;;;;32.00;30.00;;;;;20.96;43.55;99477.13;4881788;29;47173;-84
2022/04/24 11:17:02;;;;;;;;;32.00;28.67;;;;;21.24;42.23;99472.22;4885067;28;45405;-85
2022/04/24 11:19:37;;;;;;;;;31.00;29.33;;;;;21.52;42.47;99482.53;4899453;29;45545;-84
2022/04/24 11:22:06;;;;;;;;;28.67;25.67;;;;;21.64;42.08;99472.91;4898527;28;45438;-86
2022/04/24 11:24:33;;;;;;;;;33.00;29.33;;;;;21.80;42.16;99479.28;4900166;28;47337;-84
2022/04/24 11:27:04;;;;;;;;;29.67;25.33;;;;;21.90;40.84;99488.66;4915775;28;45528;-85